Perry County Municipal, IN

7:11 AM CDT on May 28, 2015 (GMT -0500)
Schnellville/Birdseye | | Change Station
CLOSE
Current Station
Personal Weather Station
Location: Birdseye, IN
Elevation: 669 ft
Nearby Weather Stations
Active Advisory: Special Statement

Elev 669 ft 38.32 °N, 86.75 °W | Updated 1 second ago

Fog
Fog
66.0 °F
Feels Like 66.0 °F
N
1.1
Wind Variable Wind from ESE
Gusts 2.5 mph

Today
High -- | Low -- °F
--% Chance of Precip.
Yesterday
High -- | Low -- °F
Precip. -- in
5:27 AM 8:00 PM
Waxing Gibbous, 75% visible
Pressure 30.19 in
Visibility 0.2 miles
Clouds Overcast 200 ft
Dew Point 66 °F
Humidity 99%
Rainfall 0.00 in
Snow Depth Not available.
UV 1.0 out of 12
Pollen 7.80 out of 12
Air Quality Not available.
Flu Activity Sporadic
METAR KHNB 281155Z AUTO 16004KT M1/4SM OVC002 19/17 A3019 RMK AO1 70002 10190 20170 52010

More Conditions Fewer Conditions

Pressure 30.19 in
Visibility 0.2 miles
Clouds Overcast 200 ft
Dew Point 66 °F
Humidity 99%
Rainfall 0.00 in
Snow Depth Not available.
UV 1.0 out of 12
Pollen 7.80 out of 12
Air Quality Not available.
Flu Activity Sporadic
METAR KHNB 281155Z AUTO 16004KT M1/4SM OVC002 19/17 A3019 RMK AO1 70002 10190 20170 52010

More Conditions Fewer Conditions

10-Day Weather Forecast

Almanac

Astronomy

May. 28, 2015 Rise Set
Actual Time
Civil Twilight
Nautical Twilight
Astronomical Twilight
Moon
Length of Visible Light
Length of Day
Tomorrow will be .
, % of the Moon is Illuminated

Today's Extremes

State Highs State Lows

Community

WunderPhotos

Upload Photos

1,824,961 photos uploaded!

WunderBlogs® & News

Nearby

Air Quality

  Air Quality AQ Index Pollutant
Not available.

Snow Depth

Station Depth Elevation

Earthquake Activity

City Distance Mag. Time & Date
Minimum magnitude displayed is 2.5.

Coastal Water Temperatures

Place Temperature

Stations

Nearby Weather Stations

Station Location Temp. Windchill Dew Point Humidity Wind Precip. Elev Updated Type
                   
Special Statement
Statement as of 5:59 AM CDT on May 28, 2015

... Patchy dense fog this morning...

Isolated patches of dense fog have been observed over southern
Indiana and central Kentucky this morning. Drivers should use
caution and be prepared for sudden drops in visibility in this
dense fog patches. Fog should dissipate over the next few hours.